This is the latest recevied weather packets stored in our database for station/object EW6780. If no packets are shown the sender has not sent any weather packets the latest 10 day(s).
| Time | Temp. | Humidity | Pressure | Rain* | Wind** | Luminosity | Snow |
|---|---|---|---|---|---|---|---|
| 1778274909 | 17.22° C | 45% | 1011.1 hPa | 0 mm | - | - | - |
| 1778274305 | 16.11° C | 45% | 1011.1 hPa | 0 mm | - | - | - |
| 1778272505 | 16.67° C | 42% | 1011.1 hPa | 0 mm | - | - | - |
| 1778271908 | 16.67° C | 42% | 1011.2 hPa | 0 mm | - | - | - |
| 1778269805 | 17.22° C | 40% | 1011 hPa | 0 mm | - | - | - |
| 1778269508 | 17.22° C | 40% | 1011 hPa | 0 mm | - | - | - |
| 1778269211 | 17.78° C | 39% | 1010.9 hPa | 0 mm | - | - | - |
| 1778268911 | 17.78° C | 40% | 1010.8 hPa | 0 mm | - | - | - |
| 1778268308 | 17.78° C | 40% | 1010.8 hPa | 0 mm | - | - | - |
| 1778267409 | 17.22° C | 40% | 1011.1 hPa | 0 mm | - | - | - |
| 1778267108 | 17.22° C | 39% | 1011.2 hPa | 0 mm | - | - | - |
| 1778266505 | 17.22° C | 40% | 1011.2 hPa | 0 mm | - | - | - |
| 1778265905 | 17.22° C | 41% | 1011.3 hPa | 0 mm | - | - | - |
| 1778265305 | 17.78° C | 39% | 1011.3 hPa | 0 mm | - | - | - |
| 1778264115 | 17.78° C | 41% | 1011.3 hPa | 0 mm | - | - | - |
| 1778260211 | 16.67° C | 41% | 1011.9 hPa | 0 mm | - | - | - |
| 1778259005 | 15.56° C | 41% | 1012.1 hPa | 0 mm | - | - | - |
| 1778258411 | 15.56° C | 40% | 1012.3 hPa | 0 mm | - | - | - |
| 1778258105 | 16.11° C | 39% | 1012.3 hPa | 0 mm | - | - | - |
| 1778256908 | 15.56° C | 42% | 1012.5 hPa | 0 mm | - | - | - |
| 1778255108 | 15° C | 41% | 1012.8 hPa | 0 mm | - | - | - |
| 1778254508 | 15.56° C | 41% | 1012.7 hPa | 0 mm | - | - | - |
| 1778254205 | 15° C | 42% | 1012.6 hPa | 0 mm | - | - | - |
| 1778253611 | 15.56° C | 42% | 1012.7 hPa | 0 mm | - | - | - |
| 1778252708 | 15.56° C | 44% | 1012.5 hPa | 0 mm | - | - | - |
* Rain latest hour (hover to see other rain measurements)
** Current wind speed in m/s (hover to see current wind gust speed)